Time;durP1;ratioP1;P1;durP2;ratioP2;P2;SDS_P1;SDS_P2;PMS_P1;PMS_P2;Temp;Humidity;BMP_temperature;BMP_pressure;BME280_temperature;BME280_humidity;BME280_pressure;Samples;Min_cycle;Max_cycle;Signal;HPM_P1;HPM_P2
2023/05/26 00:00:57;;;;;;;16.35;4.57;;;;;;;9.49;100.00;101812.66;6242482;28;20033;-93
2023/05/26 00:03:59;;;;;;;10.25;3.33;;;;;;;9.45;100.00;101815.50;6234575;28;20555;-93
2023/05/26 00:07:01;;;;;;;22.27;5.00;;;;;;;9.46;100.00;101822.31;6240461;28;20119;-91
2023/05/26 00:10:03;;;;;;;17.40;4.53;;;;;;;9.41;100.00;101816.56;6230786;28;20187;-94
2023/05/26 00:13:05;;;;;;;19.73;4.35;;;;;;;9.39;100.00;101811.50;6234208;28;20076;-92
2023/05/26 00:16:08;;;;;;;19.98;4.38;;;;;;;9.34;100.00;101815.22;6251343;28;20148;-92
2023/05/26 00:19:12;;;;;;;24.98;5.18;;;;;;;9.32;100.00;101812.72;6235729;28;20423;-92
2023/05/26 00:22:15;;;;;;;19.50;4.53;;;;;;;9.29;100.00;101820.63;6235753;28;20112;-93
2023/05/26 00:25:17;;;;;;;17.63;4.50;;;;;;;9.25;100.00;101821.72;6228739;28;20717;-93
2023/05/26 00:28:19;;;;;;;22.02;4.38;;;;;;;9.20;100.00;101816.78;6237781;28;20761;-92
2023/05/26 00:31:21;;;;;;;17.85;4.20;;;;;;;9.18;100.00;101810.88;6241952;28;20091;-93
2023/05/26 00:34:23;;;;;;;21.15;4.57;;;;;;;9.11;100.00;101825.00;6254263;28;20041;-92
2023/05/26 00:37:25;;;;;;;23.67;4.65;;;;;;;9.09;100.00;101816.50;6245493;28;20132;-92
2023/05/26 00:40:27;;;;;;;21.02;3.97;;;;;;;9.03;100.00;101828.00;6242029;28;20045;-92
2023/05/26 00:43:29;;;;;;;16.90;3.55;;;;;;;8.97;100.00;101819.75;6241091;28;20045;-92
2023/05/26 00:46:31;;;;;;;19.75;4.43;;;;;;;8.92;100.00;101827.72;6241403;28;20052;-92
2023/05/26 00:49:33;;;;;;;20.10;4.50;;;;;;;8.89;100.00;101832.19;6240776;28;20739;-93
2023/05/26 00:52:35;;;;;;;19.88;4.57;;;;;;;8.89;100.00;101834.78;6240154;28;20050;-93
2023/05/26 00:55:37;;;;;;;19.25;3.47;;;;;;;8.86;100.00;101837.53;6240517;28;20081;-92
2023/05/26 00:58:39;;;;;;;19.10;4.82;;;;;;;8.84;100.00;101825.53;6242012;28;20048;-92
2023/05/26 01:01:41;;;;;;;23.00;4.05;;;;;;;8.82;100.00;101824.78;6241143;28;20578;-92
2023/05/26 01:04:44;;;;;;;18.85;4.05;;;;;;;8.77;100.00;101828.47;6245601;28;20056;-92
2023/05/26 01:07:46;;;;;;;19.70;4.95;;;;;;;8.77;100.00;101829.34;6245320;28;20140;-92
2023/05/26 01:10:49;;;;;;;22.92;4.32;;;;;;;8.74;100.00;101829.47;6238386;28;20110;-93
2023/05/26 01:13:53;;;;;;;15.52;4.10;;;;;;;8.70;100.00;101824.56;6235313;28;20068;-92
2023/05/26 01:17:01;;;;;;;22.92;4.40;;;;;;;8.64;100.00;101828.25;6240393;28;20052;-92
2023/05/26 01:20:25;;;;;;;20.08;4.25;;;;;;;8.68;100.00;101829.78;6223584;28;20053;-92
2023/05/26 01:24:06;;;;;;;18.88;4.63;;;;;;;8.67;100.00;101822.09;6258636;28;20034;-92
2023/05/26 01:27:43;;;;;;;20.35;3.80;;;;;;;8.61;100.00;101821.50;6236412;28;20045;-93
2023/05/26 01:30:47;;;;;;;17.42;4.63;;;;;;;8.58;100.00;101821.66;6239861;28;20121;-92
2023/05/26 01:33:49;;;;;;;19.10;4.13;;;;;;;8.55;100.00;101826.97;6235218;28;20042;-92
2023/05/26 01:36:52;;;;;;;18.98;4.50;;;;;;;8.50;100.00;101828.13;6237568;28;20050;-93
2023/05/26 01:39:55;;;;;;;18.05;3.45;;;;;;;8.44;100.00;101828.41;6236767;28;20041;-93
2023/05/26 01:43:02;;;;;;;25.58;4.60;;;;;;;8.41;100.00;101832.81;6230369;28;20044;-92
2023/05/26 01:46:05;;;;;;;20.63;4.30;;;;;;;8.44;100.00;101838.75;6226864;28;20099;-93
2023/05/26 01:49:11;;;;;;;18.40;3.92;;;;;;;8.42;100.00;101836.22;6244719;28;20041;-92
2023/05/26 01:52:17;;;;;;;15.60;3.58;;;;;;;8.33;100.00;101834.91;6246912;28;20132;-92
2023/05/26 01:55:23;;;;;;;18.70;3.75;;;;;;;8.34;100.00;101833.16;6230269;28;20046;-93
2023/05/26 01:58:26;;;;;;;22.67;4.60;;;;;;;8.31;100.00;101834.13;6230620;28;20038;-93
2023/05/26 02:01:31;;;;;;;24.30;4.75;;;;;;;8.25;100.00;101838.75;6236290;28;20049;-92
2023/05/26 02:04:33;;;;;;;17.65;4.00;;;;;;;8.22;100.00;101839.72;6235496;28;20128;-93
2023/05/26 02:07:40;;;;;;;22.45;4.53;;;;;;;8.22;100.00;101839.72;6225839;28;20037;-93
2023/05/26 02:10:42;;;;;;;13.20;3.92;;;;;;;8.17;100.00;101842.56;6234612;28;20041;-92
2023/05/26 02:13:45;;;;;;;16.15;4.25;;;;;;;8.17;100.00;101846.84;6238457;28;20055;-92
2023/05/26 02:16:47;;;;;;;19.00;4.20;;;;;;;8.15;100.00;101841.78;6233215;28;20546;-93
2023/05/26 02:19:50;;;;;;;19.15;4.60;;;;;;;8.19;100.00;101843.28;6231948;28;20049;-93
2023/05/26 02:22:53;;;;;;;21.52;4.65;;;;;;;8.17;100.00;101844.28;6232265;28;20112;-94
2023/05/26 02:25:55;;;;;;;15.15;4.22;;;;;;;8.19;100.00;101845.03;6236898;28;20041;-93
2023/05/26 02:28:57;;;;;;;19.48;4.00;;;;;;;8.19;100.00;101851.03;6229644;28;20046;-93
2023/05/26 02:31:59;;;;;;;19.77;4.47;;;;;;;8.13;100.00;101850.50;6230700;28;20730;-92
2023/05/26 02:35:03;;;;;;;23.13;4.68;;;;;;;8.12;100.00;101852.25;6227946;28;20041;-93
2023/05/26 02:38:06;;;;;;;16.42;4.30;;;;;;;8.12;100.00;101848.81;6230341;28;20041;-93
2023/05/26 02:41:09;;;;;;;18.52;3.95;;;;;;;8.05;100.00;101852.59;6233327;28;20045;-92
2023/05/26 02:44:13;;;;;;;14.25;4.63;;;;;;;8.02;100.00;101858.72;6203760;28;20052;-93
2023/05/26 02:47:15;;;;;;;20.05;4.25;;;;;;;8.00;100.00;101860.56;6232250;28;20492;-93
2023/05/26 02:50:19;;;;;;;18.27;3.83;;;;;;;8.02;100.00;101855.31;6224642;28;20040;-92
2023/05/26 02:53:21;;;;;;;18.02;4.07;;;;;;;7.95;100.00;101862.53;6216660;28;20061;-92
2023/05/26 02:56:23;;;;;;;17.38;5.05;;;;;;;7.97;100.00;101851.25;6233304;28;20045;-93
2023/05/26 02:59:26;;;;;;;22.05;4.88;;;;;;;7.94;100.00;101856.50;6204058;28;20056;-93
2023/05/26 03:02:28;;;;;;;18.42;4.53;;;;;;;7.92;100.00;101863.47;6238261;28;20037;-92
2023/05/26 03:05:30;;;;;;;20.85;4.05;;;;;;;7.87;100.00;101855.13;6220034;28;20220;-93
2023/05/26 03:08:31;;;;;;;28.17;4.95;;;;;;;7.90;100.00;101865.31;6241102;28;20041;-93
2023/05/26 03:11:34;;;;;;;20.23;4.07;;;;;;;7.86;100.00;101861.19;6228881;28;20140;-93
2023/05/26 03:14:36;;;;;;;16.70;4.22;;;;;;;7.79;100.00;101859.81;6234798;28;20068;-92
2023/05/26 03:17:39;;;;;;;22.05;4.55;;;;;;;7.80;100.00;101868.38;6229294;28;20045;-93
2023/05/26 03:20:41;;;;;;;17.73;4.88;;;;;;;7.77;100.00;101864.19;6214842;28;20056;-93
2023/05/26 03:23:43;;;;;;;15.98;4.10;;;;;;;7.81;100.00;101872.63;6254044;28;20042;-93
2023/05/26 03:26:46;;;;;;;20.42;5.10;;;;;;;7.81;100.00;101881.19;6227026;28;20164;-93
2023/05/26 03:29:50;;;;;;;16.83;4.45;;;;;;;7.84;100.00;101881.03;6238558;28;20076;-93
2023/05/26 03:32:52;;;;;;;17.02;3.88;;;;;;;7.84;100.00;101883.63;6234855;28;20041;-93
2023/05/26 03:35:54;;;;;;;18.67;4.57;;;;;;;7.83;100.00;101891.44;6235208;28;20123;-93
2023/05/26 03:38:56;;;;;;;20.88;4.65;;;;;;;7.80;100.00;101889.84;6228926;28;20045;-93
2023/05/26 03:41:59;;;;;;;21.58;4.15;;;;;;;7.81;100.00;101888.09;6231156;28;20482;-93
2023/05/26 03:45:07;;;;;;;18.83;4.60;;;;;;;7.81;100.00;101886.34;6223892;28;20494;-93
2023/05/26 03:48:12;;;;;;;17.65;4.38;;;;;;;7.80;100.00;101895.00;6230163;28;20091;-92
2023/05/26 03:51:15;;;;;;;25.48;5.45;;;;;;;7.84;100.00;101896.50;6236620;28;20046;-94
2023/05/26 03:54:17;;;;;;;28.48;5.25;;;;;;;7.87;100.00;101898.13;6231267;28;20048;-93
2023/05/26 03:57:19;;;;;;;18.55;3.80;;;;;;;7.80;100.00;101900.16;6233884;28;20415;-93
2023/05/26 04:00:22;;;;;;;18.73;4.60;;;;;;;7.79;100.00;101898.47;6235091;28;20049;-93
2023/05/26 04:03:26;;;;;;;17.15;3.90;;;;;;;7.77;100.00;101898.53;6234482;28;20048;-93
2023/05/26 04:06:28;;;;;;;15.65;4.22;;;;;;;7.81;100.00;101906.97;6232898;28;20045;-93
2023/05/26 04:09:31;;;;;;;19.50;4.50;;;;;;;7.87;100.00;101895.53;6231410;28;20068;-93
2023/05/26 04:12:36;;;;;;;13.52;4.05;;;;;;;7.90;100.00;101906.56;6235768;28;20491;-93
2023/05/26 04:15:38;;;;;;;21.63;5.13;;;;;;;7.88;100.00;101908.38;6205585;28;20053;-93
2023/05/26 04:18:40;;;;;;;17.17;4.60;;;;;;;7.93;100.00;101903.00;6237543;28;20068;-93
2023/05/26 04:21:42;;;;;;;24.08;6.05;;;;;;;7.95;100.00;101909.78;6248327;28;20042;-93
2023/05/26 04:24:44;;;;;;;20.27;4.65;;;;;;;8.01;100.00;101912.97;6245020;28;20401;-93
2023/05/26 04:27:47;;;;;;;21.05;4.63;;;;;;;8.06;100.00;101917.00;6231768;28;20065;-93
2023/05/26 04:31:10;;;;;;;20.02;4.85;;;;;;;8.09;100.00;101922.00;6223078;28;20041;-93
2023/05/26 04:34:31;;;;;;;21.73;4.90;;;;;;;8.15;100.00;101918.34;6226246;28;20771;-93
2023/05/26 04:37:40;;;;;;;17.38;4.03;;;;;;;8.14;100.00;101921.81;6231712;28;20045;-93
2023/05/26 04:40:44;;;;;;;18.45;4.35;;;;;;;8.17;100.00;101925.09;6232030;28;20053;-93
2023/05/26 04:43:46;;;;;;;17.92;4.45;;;;;;;8.18;100.00;101920.75;6242103;28;20505;-93
2023/05/26 04:46:49;;;;;;;14.95;4.20;;;;;;;8.22;100.00;101927.44;6237155;28;20056;-93
2023/05/26 04:49:51;;;;;;;16.63;4.55;;;;;;;8.26;100.00;101922.97;6235042;28;20053;-93
2023/05/26 04:52:53;;;;;;;18.60;4.38;;;;;;;8.29;100.00;101925.41;6240757;28;20068;-93
2023/05/26 04:55:58;;;;;;;16.45;4.13;;;;;;;8.33;100.00;101932.13;6207944;28;20436;-93
2023/05/26 04:59:03;;;;;;;20.20;5.10;;;;;;;8.35;100.00;101938.88;6230809;28;20045;-93
2023/05/26 05:02:06;;;;;;;19.50;5.05;;;;;;;8.36;100.00;101929.38;6235131;28;20696;-93
2023/05/26 05:05:22;;;;;;;18.98;4.13;;;;;;;8.33;100.00;101932.94;6228765;28;20543;-93
2023/05/26 05:08:24;;;;;;;21.05;4.53;;;;;;;8.39;100.00;101950.72;6244320;28;20073;-94
2023/05/26 05:11:29;;;;;;;18.30;4.22;;;;;;;8.44;100.00;101947.94;6235021;28;20044;-93
2023/05/26 05:14:32;;;;;;;19.73;5.00;;;;;;;8.46;100.00;101942.72;6232443;28;20045;-93
2023/05/26 05:17:38;;;;;;;16.50;4.25;;;;;;;8.49;100.00;101947.72;6239070;28;20041;-93
2023/05/26 05:20:40;;;;;;;18.20;5.30;;;;;;;8.52;100.00;101955.31;6251474;28;20046;-92
2023/05/26 05:23:42;;;;;;;19.98;4.68;;;;;;;8.53;100.00;101949.25;6247436;28;20037;-94
2023/05/26 05:26:45;;;;;;;18.75;4.43;;;;;;;8.61;100.00;101958.31;6252537;28;20048;-93
2023/05/26 05:29:50;;;;;;;15.90;4.18;;;;;;;8.65;100.00;101960.75;6241869;28;20427;-94
2023/05/26 05:32:54;;;;;;;26.15;4.70;;;;;;;8.68;100.00;101960.59;6246199;28;20041;-93
2023/05/26 05:35:58;;;;;;;15.65;5.03;;;;;;;8.68;100.00;101966.59;6237980;28;20049;-94
2023/05/26 05:39:00;;;;;;;24.58;5.20;;;;;;;8.73;100.00;101963.81;6238036;28;20048;-93
2023/05/26 05:42:03;;;;;;;24.42;5.95;;;;;;;8.78;100.00;101961.84;6241927;28;20088;-94
2023/05/26 05:45:06;;;;;;;23.63;5.25;;;;;;;8.84;100.00;101953.78;6243259;28;20446;-93
2023/05/26 05:48:32;;;;;;;19.92;4.68;;;;;;;8.96;100.00;101965.25;6238218;28;20041;-93
2023/05/26 05:51:42;;;;;;;19.88;5.50;;;;;;;8.96;100.00;101967.84;6239554;28;20049;-93
2023/05/26 05:54:45;;;;;;;19.77;3.92;;;;;;;9.07;100.00;101968.16;6241108;28;20689;-93
2023/05/26 05:57:48;;;;;;;19.13;4.82;;;;;;;9.11;100.00;101961.91;6240470;28;20045;-94
2023/05/26 06:00:50;;;;;;;25.30;4.80;;;;;;;9.17;100.00;101976.28;6235892;28;20045;-94
2023/05/26 06:03:54;;;;;;;21.33;5.15;;;;;;;9.22;100.00;101980.31;6252447;28;20045;-93
2023/05/26 06:06:57;;;;;;;16.17;4.15;;;;;;;9.31;100.00;101979.00;6232992;28;20080;-93
2023/05/26 06:09:59;;;;;;;19.35;4.88;;;;;;;9.39;100.00;101982.06;6242894;28;20467;-93
2023/05/26 06:13:01;;;;;;;17.88;4.57;;;;;;;9.42;100.00;101991.41;6236069;28;20041;-94
2023/05/26 06:16:04;;;;;;;14.98;4.40;;;;;;;9.42;100.00;101986.22;6242214;28;20762;-94
2023/05/26 06:19:06;;;;;;;22.67;4.93;;;;;;;9.42;100.00;101988.81;6249231;28;20476;-93
2023/05/26 06:22:09;;;;;;;19.98;4.53;;;;;;;9.47;100.00;101986.84;6236385;28;20037;-94
2023/05/26 06:25:13;;;;;;;21.23;5.60;;;;;;;9.51;100.00;101985.75;6235701;28;20046;-93
2023/05/26 06:28:15;;;;;;;17.95;4.28;;;;;;;9.57;100.00;101989.78;6245895;28;20044;-93
2023/05/26 06:31:17;;;;;;;15.55;4.47;;;;;;;9.58;100.00;101994.03;6248830;28;20409;-93
2023/05/26 06:34:47;;;;;;;20.30;4.55;;;;;;;9.63;100.00;101992.88;6238365;28;20050;-94
2023/05/26 06:37:50;;;;;;;20.77;5.10;;;;;;;9.69;100.00;101991.75;6221628;28;20045;-93
2023/05/26 06:40:52;;;;;;;18.38;4.60;;;;;;;9.68;100.00;101996.06;6238828;28;20069;-93
2023/05/26 06:43:54;;;;;;;18.60;4.97;;;;;;;9.70;100.00;101994.22;6225557;28;20045;-94
2023/05/26 06:46:58;;;;;;;16.70;4.15;;;;;;;9.80;100.00;101996.34;6237968;28;20184;-94
2023/05/26 06:50:07;;;;;;;25.67;5.80;;;;;;;9.82;100.00;101997.94;6237627;28;20164;-94
2023/05/26 06:53:11;;;;;;;22.27;4.63;;;;;;;9.84;100.00;102003.03;6235449;28;20042;-94
2023/05/26 06:56:13;;;;;;;20.45;4.75;;;;;;;9.90;100.00;102000.13;6246709;28;20054;-94
2023/05/26 06:59:15;;;;;;;18.73;4.35;;;;;;;10.03;100.00;102010.66;6224099;28;20056;-92
2023/05/26 07:02:17;;;;;;;14.85;4.90;;;;;;;9.99;100.00;102004.00;6233761;28;20041;-94
2023/05/26 07:05:20;;;;;;;15.85;4.78;;;;;;;10.04;100.00;102022.69;6241013;28;20050;-94
2023/05/26 07:08:22;;;;;;;21.90;5.22;;;;;;;10.19;100.00;102018.47;6210489;28;20042;-94
2023/05/26 07:11:28;;;;;;;18.73;4.22;;;;;;;10.25;100.00;102021.53;6229819;28;20042;-93
2023/05/26 07:14:37;;;;;;;18.42;4.43;;;;;;;10.23;100.00;102014.78;6236571;28;20045;-94
2023/05/26 07:17:42;;;;;;;23.88;4.60;;;;;;;10.27;100.00;102009.34;6230552;28;20042;-93
2023/05/26 07:20:47;;;;;;;16.77;4.65;;;;;;;10.36;100.00;102015.84;6222499;28;20511;-93
2023/05/26 07:23:51;;;;;;;19.25;4.97;;;;;;;10.38;100.00;102019.16;6236073;28;20041;-94
2023/05/26 07:26:54;;;;;;;16.40;4.30;;;;;;;10.49;100.00;102019.41;6249032;28;20048;-93
2023/05/26 07:29:57;;;;;;;22.17;4.50;;;;;;;10.53;100.00;102020.94;6235767;28;20564;-93
2023/05/26 07:32:59;;;;;;;17.10;4.15;;;;;;;10.58;100.00;102015.47;6240211;28;20152;-94
2023/05/26 07:36:01;;;;;;;16.23;4.07;;;;;;;10.59;100.00;102018.91;6212923;28;20044;-94
2023/05/26 07:39:06;;;;;;;16.95;3.58;;;;;;;10.64;100.00;102022.09;6253267;28;20049;-93
2023/05/26 07:42:08;;;;;;;16.95;3.90;;;;;;;10.75;100.00;102022.31;6238882;28;20041;-94
2023/05/26 07:45:10;;;;;;;17.75;3.55;;;;;;;10.79;100.00;102016.06;6233189;28;20045;-93
2023/05/26 07:48:14;;;;;;;17.58;4.32;;;;;;;10.78;100.00;102012.63;6237400;28;20118;-94
2023/05/26 07:51:16;;;;;;;20.30;4.10;;;;;;;10.91;100.00;102009.34;6240093;28;20450;-93
2023/05/26 07:54:18;;;;;;;17.90;4.35;;;;;;;10.92;100.00;102006.66;6231547;28;20056;-94
2023/05/26 07:57:20;;;;;;;15.45;3.92;;;;;;;10.95;100.00;102008.25;6238093;28;20050;-94
2023/05/26 08:00:31;;;;;;;20.02;4.30;;;;;;;10.99;100.00;102005.41;6232873;28;20068;-94
2023/05/26 08:03:34;;;;;;;12.98;3.60;;;;;;;11.16;100.00;102004.44;6238777;28;20235;-94
2023/05/26 08:06:37;;;;;;;20.67;4.05;;;;;;;11.18;100.00;102007.78;6233491;28;20052;-94
2023/05/26 08:09:40;;;;;;;13.57;3.92;;;;;;;11.26;100.00;102006.50;6234808;28;20034;-94
2023/05/26 08:12:42;;;;;;;16.05;3.97;;;;;;;11.27;100.00;101996.03;6238368;28;20053;-95
2023/05/26 08:15:44;;;;;;;17.88;4.18;;;;;;;11.37;100.00;101998.91;6234614;28;20498;-93
2023/05/26 08:18:46;;;;;;;19.73;3.90;;;;;;;11.36;100.00;102000.69;6238445;28;20037;-94
2023/05/26 08:21:48;;;;;;;16.67;4.40;;;;;;;11.45;100.00;101999.28;6225186;28;20098;-94
2023/05/26 08:24:51;;;;;;;21.73;4.38;;;;;;;11.46;100.00;101989.78;6228618;28;20546;-94
2023/05/26 08:27:53;;;;;;;20.10;4.28;;;;;;;11.51;100.00;101995.53;6228179;28;20041;-94
2023/05/26 08:30:55;;;;;;;14.15;3.67;;;;;;;11.59;100.00;101998.50;6210604;28;20049;-95
2023/05/26 08:33:57;;;;;;;17.85;4.03;;;;;;;11.69;100.00;102002.19;6239353;28;20534;-95
2023/05/26 08:37:01;;;;;;;23.25;5.05;;;;;;;11.80;100.00;101994.63;6234638;28;20283;-96
2023/05/26 08:40:09;;;;;;;21.85;4.70;;;;;;;11.95;100.00;102002.41;6235764;28;20133;-96
2023/05/26 08:43:15;;;;;;;21.15;4.20;;;;;;;12.09;100.00;102002.41;6242068;28;20053;-95
2023/05/26 08:46:18;;;;;;;21.13;4.07;;;;;;;12.28;100.00;102004.69;6216219;28;20048;-94
2023/05/26 08:49:22;;;;;;;19.13;3.88;;;;;;;12.40;100.00;102001.34;6233358;28;20045;-95
2023/05/26 08:52:25;;;;;;;16.75;4.78;;;;;;;12.47;100.00;101999.16;6237071;28;20391;-96
2023/05/26 08:55:28;;;;;;;19.00;4.30;;;;;;;12.53;100.00;102008.34;6242011;28;20207;-94
2023/05/26 08:58:31;;;;;;;26.92;4.50;;;;;;;12.57;100.00;102009.81;6236705;28;20073;-94
2023/05/26 09:01:36;;;;;;;24.52;4.85;;;;;;;12.53;100.00;102003.16;6241988;28;20045;-95
2023/05/26 09:04:44;;;;;;;18.05;4.30;;;;;;;12.56;100.00;101995.16;6236421;28;20041;-92
2023/05/26 09:07:47;;;;;;;19.02;3.65;;;;;;;12.55;100.00;101989.13;6242099;28;20431;-95
2023/05/26 09:10:49;;;;;;;23.08;4.97;;;;;;;12.63;100.00;101996.44;6234541;28;20043;-94
2023/05/26 09:13:55;;;;;;;21.35;5.00;;;;;;;12.68;100.00;101994.38;6241924;28;20177;-94
2023/05/26 09:17:04;;;;;;;15.90;3.80;;;;;;;12.74;100.00;102000.94;6236255;28;20092;-95
2023/05/26 09:20:08;;;;;;;19.02;4.53;;;;;;;12.79;100.00;102004.06;6239761;28;20050;-96
2023/05/26 09:23:17;;;;;;;12.52;4.47;;;;;;;12.90;100.00;101991.22;6234597;28;20049;-96
2023/05/26 09:26:26;;;;;;;17.23;4.00;;;;;;;12.99;100.00;101994.97;6241635;28;20581;-94
2023/05/26 09:29:28;;;;;;;14.13;3.58;;;;;;;13.12;100.00;101993.25;6237939;28;20052;-93
2023/05/26 09:32:40;;;;;;;15.25;3.55;;;;;;;13.15;100.00;101991.28;6239398;28;20057;-96
2023/05/26 09:35:49;;;;;;;22.17;4.10;;;;;;;13.23;100.00;101995.13;6225137;28;20124;-91
2023/05/26 09:38:52;;;;;;;17.23;4.15;;;;;;;13.25;100.00;101996.69;6234803;28;20069;-93
2023/05/26 09:41:56;;;;;;;16.15;3.53;;;;;;;13.26;100.00;101997.53;6239353;28;20481;-95
2023/05/26 09:45:02;;;;;;;13.98;3.45;;;;;;;13.36;100.00;102006.41;6241419;28;20380;-94
2023/05/26 09:48:06;;;;;;;16.52;3.85;;;;;;;13.37;100.00;102010.69;6236626;28;20093;-96
2023/05/26 09:51:11;;;;;;;14.57;3.47;;;;;;;13.47;100.00;102003.91;6226835;28;20041;-94
2023/05/26 09:54:16;;;;;;;17.00;3.75;;;;;;;13.54;100.00;101999.16;6244346;28;20075;-94
2023/05/26 09:57:19;;;;;;;13.70;3.58;;;;;;;13.61;100.00;101992.56;6245888;28;20037;-95
2023/05/26 10:00:26;;;;;;;12.57;3.60;;;;;;;13.73;100.00;101989.13;6239944;28;20045;-94
2023/05/26 10:03:28;;;;;;;14.55;4.35;;;;;;;13.86;100.00;101996.91;6236295;28;20068;-93
2023/05/26 10:06:36;;;;;;;18.05;3.67;;;;;;;13.97;100.00;101994.41;6237182;28;20041;-95
2023/05/26 10:09:40;;;;;;;16.20;2.80;;;;;;;14.07;100.00;101993.78;6236748;28;20404;-92
2023/05/26 10:12:42;;;;;;;17.77;3.78;;;;;;;14.21;100.00;101980.63;6236286;28;20038;-93
2023/05/26 10:15:48;;;;;;;15.85;3.42;;;;;;;14.28;100.00;101991.41;6234336;28;20342;-94
2023/05/26 10:18:53;;;;;;;16.35;3.67;;;;;;;14.30;100.00;101998.19;6232462;28;20046;-93
2023/05/26 10:22:01;;;;;;;10.77;3.33;;;;;;;14.31;100.00;101983.38;6228251;28;20045;-93
2023/05/26 10:25:31;;;;;;;18.83;4.05;;;;;;;14.32;100.00;101985.88;6228368;28;20053;-93
2023/05/26 10:28:42;;;;;;;17.70;3.35;;;;;;;14.40;100.00;101983.53;6233356;28;20046;-93
2023/05/26 10:31:44;;;;;;;9.75;2.97;;;;;;;14.46;100.00;101982.28;6231600;28;20148;-93
2023/05/26 10:34:49;;;;;;;13.55;3.55;;;;;;;14.64;100.00;101977.56;6229893;28;20488;-93
2023/05/26 10:38:05;;;;;;;16.90;3.25;;;;;;;14.71;100.00;101991.81;6235407;28;20037;-94
2023/05/26 10:41:11;;;;;;;12.25;3.38;;;;;;;14.76;100.00;101978.44;6237219;28;20045;-93
2023/05/26 10:44:43;;;;;;;11.88;2.80;;;;;;;14.74;100.00;101975.94;6236512;28;20038;-93
2023/05/26 10:47:48;;;;;;;9.90;3.13;;;;;;;14.89;100.00;101975.75;6238831;28;20108;-93
2023/05/26 10:50:56;;;;;;;16.65;3.72;;;;;;;14.99;100.00;101971.50;6234288;28;20056;-93
2023/05/26 10:54:22;;;;;;;15.75;3.35;;;;;;;15.08;100.00;101981.25;6238180;28;20053;-96
2023/05/26 10:57:34;;;;;;;14.25;3.33;;;;;;;15.14;100.00;101967.75;6236775;28;20049;-95
2023/05/26 11:00:37;;;;;;;15.65;3.85;;;;;;;15.28;100.00;101971.94;6238382;28;20492;-94
2023/05/26 11:03:42;;;;;;;11.93;2.53;;;;;;;15.31;100.00;101971.69;6241827;28;20034;-95
2023/05/26 11:07:01;;;;;;;14.02;3.75;;;;;;;15.45;100.00;101973.25;6235138;28;20395;-94
2023/05/26 11:10:07;;;;;;;10.60;2.92;;;;;;;15.47;100.00;101981.78;6234582;28;20049;-94
2023/05/26 11:13:09;;;;;;;13.38;3.03;;;;;;;15.48;100.00;101986.06;6245409;28;20577;-95
2023/05/26 11:16:26;;;;;;;12.93;3.78;;;;;;;15.48;100.00;101978.25;6234700;28;20052;-94
2023/05/26 11:19:42;;;;;;;11.13;3.58;;;;;;;15.55;100.00;101982.03;6245063;28;20041;-95
2023/05/26 11:22:49;;;;;;;11.63;3.17;;;;;;;15.59;100.00;101972.19;6244794;28;20067;-95
2023/05/26 11:25:52;;;;;;;10.68;2.83;;;;;;;15.80;100.00;101978.41;6240370;28;20414;-94
2023/05/26 11:28:54;;;;;;;10.85;3.22;;;;;;;15.92;100.00;101976.59;6233732;28;20442;-94
2023/05/26 11:31:57;;;;;;;9.90;3.47;;;;;;;16.10;100.00;101976.94;6218003;28;20628;-93
2023/05/26 11:35:00;;;;;;;11.27;3.10;;;;;;;16.28;100.00;101983.31;6233001;28;20420;-94
2023/05/26 11:38:02;;;;;;;14.20;3.42;;;;;;;16.34;100.00;101977.56;6242747;28;20073;-92
2023/05/26 11:41:08;;;;;;;10.02;3.25;;;;;;;16.54;100.00;101973.34;6243184;28;20045;-94
2023/05/26 11:44:13;;;;;;;16.02;3.75;;;;;;;16.55;100.00;101976.81;6232313;28;20049;-94
2023/05/26 11:47:21;;;;;;;17.35;4.05;;;;;;;16.77;100.00;101976.72;6222376;28;20496;-96
2023/05/26 11:50:23;;;;;;;8.80;2.97;;;;;;;17.15;100.00;101972.75;6213384;28;20063;-94
2023/05/26 11:53:29;;;;;;;11.82;3.42;;;;;;;17.11;100.00;101975.75;6241255;28;20502;-95
2023/05/26 11:56:36;;;;;;;12.38;3.50;;;;;;;17.21;100.00;101980.06;6230025;28;20045;-92
2023/05/26 11:59:39;;;;;;;11.85;2.85;;;;;;;17.31;100.00;101969.66;6230596;28;20049;-93
2023/05/26 12:02:45;;;;;;;11.27;3.08;;;;;;;17.50;100.00;101979.41;6228328;28;20077;-93
2023/05/26 12:05:47;;;;;;;12.95;3.58;;;;;;;17.72;99.90;101972.34;6229199;28;20041;-92
2023/05/26 12:09:03;;;;;;;14.88;3.70;;;;;;;18.03;99.30;101973.94;6236011;28;20037;-92
2023/05/26 12:12:09;;;;;;;10.48;4.03;;;;;;;18.13;94.94;101973.16;6227414;28;20504;-94
2023/05/26 12:15:18;;;;;;;12.18;3.03;;;;;;;18.08;91.89;101979.63;6225985;28;20056;-93
2023/05/26 12:18:23;;;;;;;13.52;3.00;;;;;;;18.12;93.50;101968.88;6229538;28;20042;-91
2023/05/26 12:21:27;;;;;;;13.30;4.32;;;;;;;18.17;96.89;101964.06;6225103;28;20492;-92
2023/05/26 12:24:36;;;;;;;14.35;3.10;;;;;;;18.30;93.42;101954.97;6226478;28;20117;-95
2023/05/26 12:27:41;;;;;;;11.02;4.13;;;;;;;18.45;98.54;101951.94;6227557;28;20049;-93
2023/05/26 12:30:43;;;;;;;14.27;3.65;;;;;;;18.72;92.18;101964.38;6228752;28;20040;-92
2023/05/26 12:34:02;;;;;;;11.93;2.88;;;;;;;18.75;94.71;101955.38;6226630;28;20049;-90
2023/05/26 12:37:05;;;;;;;14.68;3.38;;;;;;;18.93;88.46;101959.81;6229588;28;20036;-88
2023/05/26 12:40:09;;;;;;;10.32;3.20;;;;;;;18.99;94.61;101947.09;6231030;28;20045;-90
2023/05/26 12:43:11;;;;;;;10.00;2.97;;;;;;;19.13;86.17;101947.47;6239251;28;20033;-92
2023/05/26 12:46:13;;;;;;;10.65;3.30;;;;;;;19.36;81.17;101950.59;6231622;28;20042;-90
2023/05/26 12:49:16;;;;;;;9.10;3.15;;;;;;;19.65;81.22;101951.41;6239817;28;20041;-92
2023/05/26 12:52:18;;;;;;;10.18;2.92;;;;;;;19.57;80.19;101944.28;6235495;28;20092;-91
2023/05/26 12:55:23;;;;;;;10.52;2.80;;;;;;;19.59;82.02;101942.34;6232586;28;20056;-90
2023/05/26 12:58:25;;;;;;;8.10;2.72;;;;;;;19.66;73.02;101943.41;6227440;28;20033;-92
2023/05/26 13:01:27;;;;;;;9.95;2.90;;;;;;;19.72;71.31;101944.66;6230042;28;20033;-88
2023/05/26 13:04:29;;;;;;;9.25;2.92;;;;;;;19.90;69.29;101939.41;6231772;28;20053;-91
2023/05/26 13:07:36;;;;;;;14.73;3.38;;;;;;;20.06;74.32;101936.97;6234183;28;20145;-92
2023/05/26 13:10:39;;;;;;;9.52;2.92;;;;;;;20.13;75.08;101947.72;6238507;28;20038;-92
2023/05/26 13:13:45;;;;;;;13.48;4.07;;;;;;;20.15;81.74;101938.72;6226822;28;20094;-92
2023/05/26 13:16:48;;;;;;;10.65;2.80;;;;;;;20.18;73.05;101940.22;6223476;28;20128;-91
2023/05/26 13:19:50;;;;;;;12.10;2.75;;;;;;;20.34;76.06;101934.28;6239769;28;20034;-93
2023/05/26 13:22:52;;;;;;;11.35;3.08;;;;;;;20.62;80.52;101938.50;6236941;28;20531;-90
2023/05/26 13:25:54;;;;;;;12.98;2.97;;;;;;;20.65;70.75;101943.47;6235298;28;20482;-90
2023/05/26 13:28:58;;;;;;;17.25;3.22;;;;;;;20.69;70.76;101937.88;6230346;28;20119;-93
2023/05/26 13:32:00;;;;;;;8.15;2.55;;;;;;;20.62;69.97;101953.44;6234610;28;20046;-93
2023/05/26 13:35:06;;;;;;;6.07;2.50;;;;;;;20.56;63.07;101935.66;6246850;28;20499;-91
2023/05/26 13:38:08;;;;;;;7.35;2.30;;;;;;;20.88;65.80;101928.97;6244461;28;20036;-90
2023/05/26 13:41:12;;;;;;;8.93;3.15;;;;;;;21.08;65.25;101931.22;6242448;28;20483;-96
2023/05/26 13:44:14;;;;;;;6.53;2.72;;;;;;;21.14;61.94;101924.53;6227892;28;20041;-93
2023/05/26 13:47:16;;;;;;;9.23;2.80;;;;;;;21.28;63.57;101920.47;6235517;28;20045;-93
2023/05/26 13:50:19;;;;;;;10.30;3.05;;;;;;;21.49;61.32;101922.75;6246461;28;20072;-92
2023/05/26 13:53:22;;;;;;;12.52;2.90;;;;;;;21.67;58.04;101920.84;6239608;28;20099;-90
2023/05/26 13:56:24;;;;;;;8.25;3.17;;;;;;;21.70;55.72;101919.69;6237104;28;20053;-91
2023/05/26 13:59:29;;;;;;;9.48;2.78;;;;;;;21.83;59.17;101920.03;6235353;28;20045;-93
2023/05/26 14:02:32;;;;;;;9.55;3.25;;;;;;;21.79;59.55;101923.16;6235071;28;20042;-94
2023/05/26 14:05:35;;;;;;;8.13;2.97;;;;;;;21.62;58.04;101917.03;6234599;28;20429;-93